sensor_id;sensor_type;location;lat;lon;timestamp;P1;durP1;ratioP1;P2;durP2;ratioP2
70588;SDS011;58152;49.202;18.744;2023-11-21T00:00:14;4.63;;;2.35;;
70588;SDS011;58152;49.202;18.744;2023-11-21T00:02:40;4.25;;;2.50;;
70588;SDS011;58152;49.202;18.744;2023-11-21T00:05:09;2.72;;;2.28;;
70588;SDS011;58152;49.202;18.744;2023-11-21T00:07:37;3.55;;;2.10;;
70588;SDS011;58152;49.202;18.744;2023-11-21T00:10:03;4.38;;;2.22;;
70588;SDS011;58152;49.202;18.744;2023-11-21T00:12:30;3.55;;;2.05;;
70588;SDS011;58152;49.202;18.744;2023-11-21T00:14:56;3.60;;;2.47;;
70588;SDS011;58152;49.202;18.744;2023-11-21T00:17:22;3.38;;;2.38;;
70588;SDS011;58152;49.202;18.744;2023-11-21T00:19:48;4.10;;;2.20;;
70588;SDS011;58152;49.202;18.744;2023-11-21T00:22:13;3.97;;;2.17;;
70588;SDS011;58152;49.202;18.744;2023-11-21T00:24:39;3.95;;;2.50;;
70588;SDS011;58152;49.202;18.744;2023-11-21T00:27:04;3.17;;;2.38;;
70588;SDS011;58152;49.202;18.744;2023-11-21T00:29:31;3.88;;;2.53;;
70588;SDS011;58152;49.202;18.744;2023-11-21T00:31:56;4.00;;;2.58;;
70588;SDS011;58152;49.202;18.744;2023-11-21T00:34:21;3.60;;;2.00;;
70588;SDS011;58152;49.202;18.744;2023-11-21T00:36:47;2.05;;;1.60;;
70588;SDS011;58152;49.202;18.744;2023-11-21T00:39:12;2.35;;;2.15;;
70588;SDS011;58152;49.202;18.744;2023-11-21T00:41:37;1.75;;;1.65;;
70588;SDS011;58152;49.202;18.744;2023-11-21T00:44:03;2.35;;;2.15;;
70588;SDS011;58152;49.202;18.744;2023-11-21T00:46:29;4.50;;;2.15;;
70588;SDS011;58152;49.202;18.744;2023-11-21T00:48:54;2.72;;;2.17;;
70588;SDS011;58152;49.202;18.744;2023-11-21T00:51:20;4.72;;;2.47;;
70588;SDS011;58152;49.202;18.744;2023-11-21T00:53:47;2.63;;;2.25;;
70588;SDS011;58152;49.202;18.744;2023-11-21T00:56:13;4.65;;;2.40;;
70588;SDS011;58152;49.202;18.744;2023-11-21T00:58:38;4.75;;;2.90;;
70588;SDS011;58152;49.202;18.744;2023-11-21T01:01:07;4.20;;;2.50;;
70588;SDS011;58152;49.202;18.744;2023-11-21T01:03:33;4.88;;;2.05;;
70588;SDS011;58152;49.202;18.744;2023-11-21T01:05:58;3.85;;;2.75;;
70588;SDS011;58152;49.202;18.744;2023-11-21T01:08:24;2.13;;;1.88;;
70588;SDS011;58152;49.202;18.744;2023-11-21T01:10:49;3.90;;;2.15;;
70588;SDS011;58152;49.202;18.744;2023-11-21T01:13:15;2.22;;;1.83;;
70588;SDS011;58152;49.202;18.744;2023-11-21T01:15:40;1.90;;;1.73;;
70588;SDS011;58152;49.202;18.744;2023-11-21T01:18:06;4.22;;;2.20;;
70588;SDS011;58152;49.202;18.744;2023-11-21T01:20:33;3.05;;;2.17;;
70588;SDS011;58152;49.202;18.744;2023-11-21T01:22:59;4.78;;;2.28;;
70588;SDS011;58152;49.202;18.744;2023-11-21T01:25:24;2.55;;;1.70;;
70588;SDS011;58152;49.202;18.744;2023-11-21T01:27:51;2.78;;;2.03;;
70588;SDS011;58152;49.202;18.744;2023-11-21T01:30:16;2.75;;;1.92;;
70588;SDS011;58152;49.202;18.744;2023-11-21T01:32:41;3.70;;;2.08;;
70588;SDS011;58152;49.202;18.744;2023-11-21T01:35:07;3.10;;;1.83;;
70588;SDS011;58152;49.202;18.744;2023-11-21T01:37:34;3.40;;;1.77;;
70588;SDS011;58152;49.202;18.744;2023-11-21T01:40:00;2.42;;;1.70;;
70588;SDS011;58152;49.202;18.744;2023-11-21T01:42:26;4.70;;;2.50;;
70588;SDS011;58152;49.202;18.744;2023-11-21T01:44:52;3.45;;;2.22;;
70588;SDS011;58152;49.202;18.744;2023-11-21T01:47:19;3.22;;;2.20;;
70588;SDS011;58152;49.202;18.744;2023-11-21T01:49:46;3.80;;;2.60;;
70588;SDS011;58152;49.202;18.744;2023-11-21T01:52:12;3.95;;;2.38;;
70588;SDS011;58152;49.202;18.744;2023-11-21T01:54:38;3.08;;;1.98;;
70588;SDS011;58152;49.202;18.744;2023-11-21T01:57:04;3.13;;;2.08;;
70588;SDS011;58152;49.202;18.744;2023-11-21T01:59:37;1.85;;;1.73;;
70588;SDS011;58152;49.202;18.744;2023-11-21T02:02:07;4.07;;;2.20;;
70588;SDS011;58152;49.202;18.744;2023-11-21T02:04:33;2.22;;;1.83;;
70588;SDS011;58152;49.202;18.744;2023-11-21T02:06:59;3.40;;;2.38;;
70588;SDS011;58152;49.202;18.744;2023-11-21T02:09:28;5.15;;;3.15;;
70588;SDS011;58152;49.202;18.744;2023-11-21T02:12:14;4.82;;;2.38;;
70588;SDS011;58152;49.202;18.744;2023-11-21T02:14:40;4.40;;;2.92;;
70588;SDS011;58152;49.202;18.744;2023-11-21T02:17:05;3.30;;;2.50;;
70588;SDS011;58152;49.202;18.744;2023-11-21T02:19:31;5.15;;;3.30;;
70588;SDS011;58152;49.202;18.744;2023-11-21T02:21:57;3.47;;;2.40;;
70588;SDS011;58152;49.202;18.744;2023-11-21T02:24:25;4.53;;;2.83;;
70588;SDS011;58152;49.202;18.744;2023-11-21T02:26:52;2.85;;;2.45;;
70588;SDS011;58152;49.202;18.744;2023-11-21T02:29:18;4.95;;;2.85;;
70588;SDS011;58152;49.202;18.744;2023-11-21T02:31:46;3.30;;;2.20;;
70588;SDS011;58152;49.202;18.744;2023-11-21T02:34:16;3.97;;;2.70;;
70588;SDS011;58152;49.202;18.744;2023-11-21T02:36:43;5.22;;;3.13;;
70588;SDS011;58152;49.202;18.744;2023-11-21T02:39:09;4.10;;;3.30;;
70588;SDS011;58152;49.202;18.744;2023-11-21T02:41:36;4.72;;;3.30;;
70588;SDS011;58152;49.202;18.744;2023-11-21T02:44:03;4.50;;;3.30;;
70588;SDS011;58152;49.202;18.744;2023-11-21T02:46:29;6.40;;;4.32;;
70588;SDS011;58152;49.202;18.744;2023-11-21T02:48:54;7.78;;;4.75;;
70588;SDS011;58152;49.202;18.744;2023-11-21T02:51:19;5.60;;;4.20;;
70588;SDS011;58152;49.202;18.744;2023-11-21T02:53:45;5.70;;;4.07;;
70588;SDS011;58152;49.202;18.744;2023-11-21T02:56:11;5.38;;;4.88;;
70588;SDS011;58152;49.202;18.744;2023-11-21T02:58:37;5.28;;;4.00;;
70588;SDS011;58152;49.202;18.744;2023-11-21T03:01:03;5.65;;;4.45;;
70588;SDS011;58152;49.202;18.744;2023-11-21T03:03:30;4.88;;;4.00;;
70588;SDS011;58152;49.202;18.744;2023-11-21T03:05:56;4.97;;;3.80;;
70588;SDS011;58152;49.202;18.744;2023-11-21T03:08:21;6.70;;;4.35;;
70588;SDS011;58152;49.202;18.744;2023-11-21T03:10:46;5.22;;;3.78;;
70588;SDS011;58152;49.202;18.744;2023-11-21T03:13:12;4.75;;;3.35;;
70588;SDS011;58152;49.202;18.744;2023-11-21T03:15:38;7.07;;;3.38;;
70588;SDS011;58152;49.202;18.744;2023-11-21T03:18:04;5.18;;;4.13;;
70588;SDS011;58152;49.202;18.744;2023-11-21T03:20:30;4.95;;;4.03;;
70588;SDS011;58152;49.202;18.744;2023-11-21T03:22:55;6.57;;;4.47;;
70588;SDS011;58152;49.202;18.744;2023-11-21T03:25:20;4.85;;;3.85;;
70588;SDS011;58152;49.202;18.744;2023-11-21T03:27:49;5.53;;;4.15;;
70588;SDS011;58152;49.202;18.744;2023-11-21T03:30:14;6.03;;;4.22;;
70588;SDS011;58152;49.202;18.744;2023-11-21T03:32:40;4.57;;;4.10;;
70588;SDS011;58152;49.202;18.744;2023-11-21T03:35:05;7.68;;;5.15;;
70588;SDS011;58152;49.202;18.744;2023-11-21T03:37:31;5.20;;;3.83;;
70588;SDS011;58152;49.202;18.744;2023-11-21T03:39:56;6.63;;;3.88;;
70588;SDS011;58152;49.202;18.744;2023-11-21T03:42:22;4.80;;;3.60;;
70588;SDS011;58152;49.202;18.744;2023-11-21T03:44:47;4.38;;;3.25;;
70588;SDS011;58152;49.202;18.744;2023-11-21T03:47:12;5.22;;;3.67;;
70588;SDS011;58152;49.202;18.744;2023-11-21T03:49:38;5.90;;;3.95;;
70588;SDS011;58152;49.202;18.744;2023-11-21T03:52:04;6.15;;;4.30;;
70588;SDS011;58152;49.202;18.744;2023-11-21T03:54:29;5.57;;;4.30;;
70588;SDS011;58152;49.202;18.744;2023-11-21T03:56:55;5.47;;;3.88;;
70588;SDS011;58152;49.202;18.744;2023-11-21T03:59:21;5.45;;;3.70;;
70588;SDS011;58152;49.202;18.744;2023-11-21T04:01:49;5.47;;;3.88;;
70588;SDS011;58152;49.202;18.744;2023-11-21T04:04:15;5.40;;;4.00;;
70588;SDS011;58152;49.202;18.744;2023-11-21T04:06:41;6.10;;;4.20;;
70588;SDS011;58152;49.202;18.744;2023-11-21T04:09:06;6.25;;;4.57;;
70588;SDS011;58152;49.202;18.744;2023-11-21T04:11:31;5.95;;;4.00;;
70588;SDS011;58152;49.202;18.744;2023-11-21T04:13:57;5.10;;;3.88;;
70588;SDS011;58152;49.202;18.744;2023-11-21T04:16:22;5.28;;;3.83;;
70588;SDS011;58152;49.202;18.744;2023-11-21T04:18:48;6.10;;;3.80;;
70588;SDS011;58152;49.202;18.744;2023-11-21T04:21:13;4.85;;;3.58;;
70588;SDS011;58152;49.202;18.744;2023-11-21T04:23:39;8.23;;;4.40;;
70588;SDS011;58152;49.202;18.744;2023-11-21T04:26:05;4.85;;;3.63;;
70588;SDS011;58152;49.202;18.744;2023-11-21T04:28:31;6.38;;;4.32;;
70588;SDS011;58152;49.202;18.744;2023-11-21T04:30:56;4.43;;;4.03;;
70588;SDS011;58152;49.202;18.744;2023-11-21T04:33:21;4.45;;;3.38;;
70588;SDS011;58152;49.202;18.744;2023-11-21T04:35:47;4.55;;;3.47;;
70588;SDS011;58152;49.202;18.744;2023-11-21T04:38:13;4.82;;;3.13;;
70588;SDS011;58152;49.202;18.744;2023-11-21T04:40:39;107.47;;;79.90;;
70588;SDS011;58152;49.202;18.744;2023-11-21T04:43:04;118.85;;;85.65;;
70588;SDS011;58152;49.202;18.744;2023-11-21T04:45:30;70.57;;;48.17;;
70588;SDS011;58152;49.202;18.744;2023-11-21T04:47:55;29.90;;;20.17;;
70588;SDS011;58152;49.202;18.744;2023-11-21T04:50:21;17.45;;;11.38;;
70588;SDS011;58152;49.202;18.744;2023-11-21T04:52:46;9.88;;;6.53;;
70588;SDS011;58152;49.202;18.744;2023-11-21T04:55:12;6.53;;;5.57;;
70588;SDS011;58152;49.202;18.744;2023-11-21T04:57:37;6.88;;;4.97;;
70588;SDS011;58152;49.202;18.744;2023-11-21T05:00:04;4.95;;;4.22;;
70588;SDS011;58152;49.202;18.744;2023-11-21T05:02:31;4.30;;;3.17;;
70588;SDS011;58152;49.202;18.744;2023-11-21T05:04:59;5.40;;;3.20;;
70588;SDS011;58152;49.202;18.744;2023-11-21T05:07:24;2.78;;;2.58;;
70588;SDS011;58152;49.202;18.744;2023-11-21T05:09:53;5.05;;;3.15;;
70588;SDS011;58152;49.202;18.744;2023-11-21T05:12:21;4.25;;;3.40;;
70588;SDS011;58152;49.202;18.744;2023-11-21T05:14:48;7.00;;;3.83;;
70588;SDS011;58152;49.202;18.744;2023-11-21T05:17:14;3.60;;;2.65;;
70588;SDS011;58152;49.202;18.744;2023-11-21T05:19:39;3.28;;;2.63;;
70588;SDS011;58152;49.202;18.744;2023-11-21T05:22:05;4.45;;;2.50;;
70588;SDS011;58152;49.202;18.744;2023-11-21T05:24:31;4.57;;;2.83;;
70588;SDS011;58152;49.202;18.744;2023-11-21T05:26:56;3.60;;;2.65;;
70588;SDS011;58152;49.202;18.744;2023-11-21T05:29:22;3.35;;;2.78;;
70588;SDS011;58152;49.202;18.744;2023-11-21T05:31:48;4.40;;;3.55;;
70588;SDS011;58152;49.202;18.744;2023-11-21T05:34:13;4.78;;;3.30;;
70588;SDS011;58152;49.202;18.744;2023-11-21T05:36:40;5.72;;;3.90;;
70588;SDS011;58152;49.202;18.744;2023-11-21T05:39:05;6.78;;;3.83;;
70588;SDS011;58152;49.202;18.744;2023-11-21T05:41:30;4.95;;;3.85;;
70588;SDS011;58152;49.202;18.744;2023-11-21T05:43:56;3.63;;;2.92;;
70588;SDS011;58152;49.202;18.744;2023-11-21T05:46:21;4.25;;;3.10;;
70588;SDS011;58152;49.202;18.744;2023-11-21T05:48:47;5.35;;;3.58;;
70588;SDS011;58152;49.202;18.744;2023-11-21T05:51:12;5.10;;;3.75;;
70588;SDS011;58152;49.202;18.744;2023-11-21T05:53:38;5.43;;;4.32;;
70588;SDS011;58152;49.202;18.744;2023-11-21T05:56:04;6.45;;;5.45;;
70588;SDS011;58152;49.202;18.744;2023-11-21T05:58:30;6.57;;;5.15;;
70588;SDS011;58152;49.202;18.744;2023-11-21T06:00:55;8.23;;;5.60;;
70588;SDS011;58152;49.202;18.744;2023-11-21T06:03:20;7.18;;;5.43;;
70588;SDS011;58152;49.202;18.744;2023-11-21T06:05:46;8.00;;;5.78;;
70588;SDS011;58152;49.202;18.744;2023-11-21T06:08:11;6.10;;;5.18;;
70588;SDS011;58152;49.202;18.744;2023-11-21T06:10:37;8.43;;;5.07;;
70588;SDS011;58152;49.202;18.744;2023-11-21T06:13:02;11.32;;;5.93;;
70588;SDS011;58152;49.202;18.744;2023-11-21T06:15:28;6.85;;;5.05;;
70588;SDS011;58152;49.202;18.744;2023-11-21T06:17:54;8.75;;;7.10;;
70588;SDS011;58152;49.202;18.744;2023-11-21T06:20:20;9.45;;;5.72;;
70588;SDS011;58152;49.202;18.744;2023-11-21T06:22:46;6.25;;;4.53;;
70588;SDS011;58152;49.202;18.744;2023-11-21T06:25:13;7.63;;;5.13;;
70588;SDS011;58152;49.202;18.744;2023-11-21T06:27:39;6.20;;;4.50;;
70588;SDS011;58152;49.202;18.744;2023-11-21T06:30:07;6.55;;;5.47;;
70588;SDS011;58152;49.202;18.744;2023-11-21T06:32:34;9.15;;;5.10;;
70588;SDS011;58152;49.202;18.744;2023-11-21T06:35:01;5.32;;;4.60;;
70588;SDS011;58152;49.202;18.744;2023-11-21T06:37:27;4.90;;;4.40;;
70588;SDS011;58152;49.202;18.744;2023-11-21T06:39:53;4.82;;;4.05;;
70588;SDS011;58152;49.202;18.744;2023-11-21T06:42:19;5.68;;;4.35;;
70588;SDS011;58152;49.202;18.744;2023-11-21T06:44:45;6.45;;;4.50;;
70588;SDS011;58152;49.202;18.744;2023-11-21T06:47:10;6.13;;;4.45;;
70588;SDS011;58152;49.202;18.744;2023-11-21T06:49:36;5.63;;;4.43;;
70588;SDS011;58152;49.202;18.744;2023-11-21T06:52:03;6.65;;;5.28;;
70588;SDS011;58152;49.202;18.744;2023-11-21T06:54:30;7.00;;;5.50;;
70588;SDS011;58152;49.202;18.744;2023-11-21T06:56:58;8.35;;;6.45;;
70588;SDS011;58152;49.202;18.744;2023-11-21T06:59:23;6.25;;;5.65;;
70588;SDS011;58152;49.202;18.744;2023-11-21T07:01:49;6.80;;;5.65;;
70588;SDS011;58152;49.202;18.744;2023-11-21T07:04:15;8.20;;;5.70;;
70588;SDS011;58152;49.202;18.744;2023-11-21T07:06:40;6.38;;;4.78;;
70588;SDS011;58152;49.202;18.744;2023-11-21T07:09:06;6.00;;;4.65;;
70588;SDS011;58152;49.202;18.744;2023-11-21T07:11:33;8.98;;;5.70;;
70588;SDS011;58152;49.202;18.744;2023-11-21T07:13:59;5.70;;;4.95;;
70588;SDS011;58152;49.202;18.744;2023-11-21T07:16:27;5.95;;;5.20;;
70588;SDS011;58152;49.202;18.744;2023-11-21T07:18:53;5.05;;;4.55;;
70588;SDS011;58152;49.202;18.744;2023-11-21T07:21:19;7.95;;;5.75;;
70588;SDS011;58152;49.202;18.744;2023-11-21T07:23:45;6.68;;;4.97;;
70588;SDS011;58152;49.202;18.744;2023-11-21T07:26:11;6.95;;;5.82;;
70588;SDS011;58152;49.202;18.744;2023-11-21T07:28:37;8.30;;;5.45;;
70588;SDS011;58152;49.202;18.744;2023-11-21T07:31:02;7.57;;;6.22;;
70588;SDS011;58152;49.202;18.744;2023-11-21T07:33:28;7.47;;;5.53;;
70588;SDS011;58152;49.202;18.744;2023-11-21T07:35:53;7.05;;;5.53;;
70588;SDS011;58152;49.202;18.744;2023-11-21T07:38:19;8.38;;;5.63;;
70588;SDS011;58152;49.202;18.744;2023-11-21T07:40:44;8.18;;;6.18;;
70588;SDS011;58152;49.202;18.744;2023-11-21T07:43:10;7.65;;;6.82;;
70588;SDS011;58152;49.202;18.744;2023-11-21T07:45:35;9.27;;;7.32;;
70588;SDS011;58152;49.202;18.744;2023-11-21T07:48:01;8.00;;;7.10;;
70588;SDS011;58152;49.202;18.744;2023-11-21T07:50:28;8.27;;;6.65;;
70588;SDS011;58152;49.202;18.744;2023-11-21T07:52:54;11.15;;;8.95;;
70588;SDS011;58152;49.202;18.744;2023-11-21T07:55:20;15.65;;;12.07;;
70588;SDS011;58152;49.202;18.744;2023-11-21T07:57:45;19.35;;;12.90;;
70588;SDS011;58152;49.202;18.744;2023-11-21T08:00:10;20.20;;;12.10;;
70588;SDS011;58152;49.202;18.744;2023-11-21T08:02:37;18.85;;;12.40;;
70588;SDS011;58152;49.202;18.744;2023-11-21T08:05:11;19.90;;;12.90;;
70588;SDS011;58152;49.202;18.744;2023-11-21T08:07:37;20.90;;;12.90;;
70588;SDS011;58152;49.202;18.744;2023-11-21T08:10:03;18.15;;;11.90;;
70588;SDS011;58152;49.202;18.744;2023-11-21T08:12:30;22.40;;;13.50;;
70588;SDS011;58152;49.202;18.744;2023-11-21T08:14:56;19.63;;;12.68;;
70588;SDS011;58152;49.202;18.744;2023-11-21T08:17:21;16.10;;;11.40;;
70588;SDS011;58152;49.202;18.744;2023-11-21T08:19:47;15.85;;;10.40;;
70588;SDS011;58152;49.202;18.744;2023-11-21T08:22:15;18.15;;;10.68;;
70588;SDS011;58152;49.202;18.744;2023-11-21T08:24:42;16.27;;;11.43;;
70588;SDS011;58152;49.202;18.744;2023-11-21T08:27:08;13.55;;;9.30;;
70588;SDS011;58152;49.202;18.744;2023-11-21T08:29:34;11.85;;;10.23;;
70588;SDS011;58152;49.202;18.744;2023-11-21T08:32:01;9.95;;;8.90;;
70588;SDS011;58152;49.202;18.744;2023-11-21T08:34:27;11.73;;;8.73;;
70588;SDS011;58152;49.202;18.744;2023-11-21T08:36:53;196.10;;;165.07;;
70588;SDS011;58152;49.202;18.744;2023-11-21T08:39:20;129.23;;;100.47;;
70588;SDS011;58152;49.202;18.744;2023-11-21T08:41:49;68.40;;;52.42;;
70588;SDS011;58152;49.202;18.744;2023-11-21T08:44:15;34.85;;;26.92;;
70588;SDS011;58152;49.202;18.744;2023-11-21T08:46:43;21.75;;;16.80;;
70588;SDS011;58152;49.202;18.744;2023-11-21T08:49:10;14.57;;;11.80;;
70588;SDS011;58152;49.202;18.744;2023-11-21T08:51:36;13.32;;;10.40;;
70588;SDS011;58152;49.202;18.744;2023-11-21T08:54:02;11.45;;;9.18;;
70588;SDS011;58152;49.202;18.744;2023-11-21T08:56:32;12.52;;;9.30;;
70588;SDS011;58152;49.202;18.744;2023-11-21T08:58:57;14.05;;;10.23;;
70588;SDS011;58152;49.202;18.744;2023-11-21T09:01:22;11.98;;;8.80;;
70588;SDS011;58152;49.202;18.744;2023-11-21T09:03:48;10.30;;;8.02;;
70588;SDS011;58152;49.202;18.744;2023-11-21T09:06:15;12.75;;;7.80;;
70588;SDS011;58152;49.202;18.744;2023-11-21T09:08:40;9.60;;;7.75;;
70588;SDS011;58152;49.202;18.744;2023-11-21T09:11:07;11.90;;;7.57;;
70588;SDS011;58152;49.202;18.744;2023-11-21T09:13:33;11.70;;;8.73;;
70588;SDS011;58152;49.202;18.744;2023-11-21T09:15:59;11.60;;;8.93;;
70588;SDS011;58152;49.202;18.744;2023-11-21T09:18:25;11.07;;;8.32;;
70588;SDS011;58152;49.202;18.744;2023-11-21T09:20:50;11.95;;;9.73;;
70588;SDS011;58152;49.202;18.744;2023-11-21T09:23:16;11.95;;;9.27;;
70588;SDS011;58152;49.202;18.744;2023-11-21T09:25:41;10.07;;;8.68;;
70588;SDS011;58152;49.202;18.744;2023-11-21T09:28:07;8.68;;;7.45;;
70588;SDS011;58152;49.202;18.744;2023-11-21T09:30:33;11.50;;;8.13;;
70588;SDS011;58152;49.202;18.744;2023-11-21T09:33:00;9.45;;;7.88;;
70588;SDS011;58152;49.202;18.744;2023-11-21T09:35:26;9.65;;;6.75;;
70588;SDS011;58152;49.202;18.744;2023-11-21T09:37:53;7.57;;;6.53;;
70588;SDS011;58152;49.202;18.744;2023-11-21T09:40:20;8.77;;;5.95;;
70588;SDS011;58152;49.202;18.744;2023-11-21T09:42:56;7.57;;;5.45;;
70588;SDS011;58152;49.202;18.744;2023-11-21T09:47:59;6.20;;;4.85;;
70588;SDS011;58152;49.202;18.744;2023-11-21T09:50:24;5.72;;;5.10;;
70588;SDS011;58152;49.202;18.744;2023-11-21T09:55:41;8.25;;;5.43;;
70588;SDS011;58152;49.202;18.744;2023-11-21T09:58:08;7.03;;;6.25;;
70588;SDS011;58152;49.202;18.744;2023-11-21T10:00:37;7.00;;;6.05;;
70588;SDS011;58152;49.202;18.744;2023-11-21T10:03:08;9.40;;;6.72;;
70588;SDS011;58152;49.202;18.744;2023-11-21T10:05:34;8.13;;;6.55;;
70588;SDS011;58152;49.202;18.744;2023-11-21T10:08:00;9.48;;;7.20;;
70588;SDS011;58152;49.202;18.744;2023-11-21T10:10:26;10.40;;;7.03;;
70588;SDS011;58152;49.202;18.744;2023-11-21T10:12:54;7.53;;;6.28;;
70588;SDS011;58152;49.202;18.744;2023-11-21T10:15:22;8.77;;;6.20;;
70588;SDS011;58152;49.202;18.744;2023-11-21T10:17:50;9.00;;;6.93;;
70588;SDS011;58152;49.202;18.744;2023-11-21T10:20:18;7.80;;;6.45;;
70588;SDS011;58152;49.202;18.744;2023-11-21T10:22:49;10.82;;;7.32;;
70588;SDS011;58152;49.202;18.744;2023-11-21T10:25:15;8.73;;;7.05;;
70588;SDS011;58152;49.202;18.744;2023-11-21T10:27:41;9.82;;;8.25;;
70588;SDS011;58152;49.202;18.744;2023-11-21T10:30:07;8.20;;;5.80;;
70588;SDS011;58152;49.202;18.744;2023-11-21T10:32:37;7.00;;;6.00;;
70588;SDS011;58152;49.202;18.744;2023-11-21T10:35:03;8.43;;;6.85;;
70588;SDS011;58152;49.202;18.744;2023-11-21T10:37:32;9.70;;;6.93;;
70588;SDS011;58152;49.202;18.744;2023-11-21T10:39:58;7.63;;;6.82;;
70588;SDS011;58152;49.202;18.744;2023-11-21T10:42:24;8.48;;;6.32;;
70588;SDS011;58152;49.202;18.744;2023-11-21T10:44:49;8.30;;;6.05;;
70588;SDS011;58152;49.202;18.744;2023-11-21T10:47:16;7.72;;;5.90;;
70588;SDS011;58152;49.202;18.744;2023-11-21T10:49:44;7.32;;;5.72;;
70588;SDS011;58152;49.202;18.744;2023-11-21T10:52:12;36.00;;;29.85;;
70588;SDS011;58152;49.202;18.744;2023-11-21T10:54:42;49.30;;;41.63;;
70588;SDS011;58152;49.202;18.744;2023-11-21T10:57:08;27.58;;;23.08;;
70588;SDS011;58152;49.202;18.744;2023-11-21T10:59:36;18.80;;;15.40;;
70588;SDS011;58152;49.202;18.744;2023-11-21T11:02:04;11.75;;;10.02;;
70588;SDS011;58152;49.202;18.744;2023-11-21T11:04:53;10.65;;;8.13;;
70588;SDS011;58152;49.202;18.744;2023-11-21T11:07:25;8.82;;;7.65;;
70588;SDS011;58152;49.202;18.744;2023-11-21T11:09:52;8.27;;;6.93;;
70588;SDS011;58152;49.202;18.744;2023-11-21T11:12:21;8.25;;;7.10;;
70588;SDS011;58152;49.202;18.744;2023-11-21T11:14:48;8.82;;;7.15;;
70588;SDS011;58152;49.202;18.744;2023-11-21T11:17:14;8.80;;;7.78;;
70588;SDS011;58152;49.202;18.744;2023-11-21T11:19:39;8.15;;;6.63;;
70588;SDS011;58152;49.202;18.744;2023-11-21T11:28:01;7.70;;;6.30;;
70588;SDS011;58152;49.202;18.744;2023-11-21T11:38:33;9.55;;;8.55;;
70588;SDS011;58152;49.202;18.744;2023-11-21T11:41:03;9.35;;;8.15;;
70588;SDS011;58152;49.202;18.744;2023-11-21T11:43:30;9.52;;;7.93;;
70588;SDS011;58152;49.202;18.744;2023-11-21T11:46:07;10.40;;;8.27;;
70588;SDS011;58152;49.202;18.744;2023-11-21T11:48:34;8.68;;;7.78;;
70588;SDS011;58152;49.202;18.744;2023-11-21T11:51:09;9.80;;;7.80;;
70588;SDS011;58152;49.202;18.744;2023-11-21T11:53:40;9.73;;;7.65;;
70588;SDS011;58152;49.202;18.744;2023-11-21T11:58:49;8.13;;;7.32;;
70588;SDS011;58152;49.202;18.744;2023-11-21T12:01:19;9.32;;;8.18;;
70588;SDS011;58152;49.202;18.744;2023-11-21T12:04:05;7.75;;;6.93;;
70588;SDS011;58152;49.202;18.744;2023-11-21T12:06:39;7.82;;;6.90;;
70588;SDS011;58152;49.202;18.744;2023-11-21T12:09:06;7.47;;;6.07;;
70588;SDS011;58152;49.202;18.744;2023-11-21T12:11:31;6.93;;;5.80;;
70588;SDS011;58152;49.202;18.744;2023-11-21T12:13:58;6.97;;;5.20;;
70588;SDS011;58152;49.202;18.744;2023-11-21T12:16:25;7.00;;;5.82;;
70588;SDS011;58152;49.202;18.744;2023-11-21T12:18:52;10.70;;;5.93;;
70588;SDS011;58152;49.202;18.744;2023-11-21T12:21:19;6.78;;;6.00;;
70588;SDS011;58152;49.202;18.744;2023-11-21T12:23:47;8.77;;;6.55;;
70588;SDS011;58152;49.202;18.744;2023-11-21T12:26:13;6.95;;;6.25;;
70588;SDS011;58152;49.202;18.744;2023-11-21T12:28:39;9.52;;;6.10;;
70588;SDS011;58152;49.202;18.744;2023-11-21T12:31:04;5.72;;;4.75;;
70588;SDS011;58152;49.202;18.744;2023-11-21T12:33:31;6.45;;;4.93;;
70588;SDS011;58152;49.202;18.744;2023-11-21T12:36:00;6.43;;;4.40;;
70588;SDS011;58152;49.202;18.744;2023-11-21T12:38:25;7.63;;;4.70;;
70588;SDS011;58152;49.202;18.744;2023-11-21T12:40:59;8.40;;;4.97;;
70588;SDS011;58152;49.202;18.744;2023-11-21T12:43:25;6.57;;;4.65;;
70588;SDS011;58152;49.202;18.744;2023-11-21T12:45:50;5.53;;;4.82;;
70588;SDS011;58152;49.202;18.744;2023-11-21T12:48:29;6.32;;;4.57;;
70588;SDS011;58152;49.202;18.744;2023-11-21T12:50:57;5.35;;;4.85;;
70588;SDS011;58152;49.202;18.744;2023-11-21T12:53:25;6.57;;;4.95;;
70588;SDS011;58152;49.202;18.744;2023-11-21T12:55:51;6.50;;;5.13;;
70588;SDS011;58152;49.202;18.744;2023-11-21T12:58:16;5.72;;;4.65;;
70588;SDS011;58152;49.202;18.744;2023-11-21T13:00:46;6.70;;;4.95;;
70588;SDS011;58152;49.202;18.744;2023-11-21T13:03:13;5.60;;;4.97;;
70588;SDS011;58152;49.202;18.744;2023-11-21T13:05:44;5.57;;;4.95;;
70588;SDS011;58152;49.202;18.744;2023-11-21T13:08:12;7.20;;;4.22;;
70588;SDS011;58152;49.202;18.744;2023-11-21T13:10:43;5.53;;;4.90;;
70588;SDS011;58152;49.202;18.744;2023-11-21T13:13:11;7.50;;;5.15;;
70588;SDS011;58152;49.202;18.744;2023-11-21T13:15:49;5.93;;;5.35;;
70588;SDS011;58152;49.202;18.744;2023-11-21T13:18:16;12.18;;;6.30;;
70588;SDS011;58152;49.202;18.744;2023-11-21T13:20:42;9.82;;;5.90;;
70588;SDS011;58152;49.202;18.744;2023-11-21T13:23:08;7.05;;;5.97;;
70588;SDS011;58152;49.202;18.744;2023-11-21T13:25:37;7.80;;;5.95;;
70588;SDS011;58152;49.202;18.744;2023-11-21T13:28:04;10.82;;;6.95;;
70588;SDS011;58152;49.202;18.744;2023-11-21T13:30:30;7.18;;;6.47;;
70588;SDS011;58152;49.202;18.744;2023-11-21T13:32:58;6.75;;;6.05;;
70588;SDS011;58152;49.202;18.744;2023-11-21T13:35:30;8.90;;;6.05;;
70588;SDS011;58152;49.202;18.744;2023-11-21T13:38:02;8.73;;;5.65;;
70588;SDS011;58152;49.202;18.744;2023-11-21T13:40:30;6.97;;;5.53;;
70588;SDS011;58152;49.202;18.744;2023-11-21T13:42:56;9.23;;;5.20;;
70588;SDS011;58152;49.202;18.744;2023-11-21T13:45:25;5.88;;;5.18;;
70588;SDS011;58152;49.202;18.744;2023-11-21T13:47:52;8.88;;;6.15;;
70588;SDS011;58152;49.202;18.744;2023-11-21T13:50:22;7.50;;;5.00;;
70588;SDS011;58152;49.202;18.744;2023-11-21T13:52:53;6.70;;;5.13;;
70588;SDS011;58152;49.202;18.744;2023-11-21T13:55:19;6.55;;;4.70;;
70588;SDS011;58152;49.202;18.744;2023-11-21T13:57:46;7.05;;;5.35;;
70588;SDS011;58152;49.202;18.744;2023-11-21T14:00:16;7.15;;;5.20;;
70588;SDS011;58152;49.202;18.744;2023-11-21T14:03:04;6.28;;;4.35;;
70588;SDS011;58152;49.202;18.744;2023-11-21T14:05:35;7.80;;;5.20;;
70588;SDS011;58152;49.202;18.744;2023-11-21T14:08:00;5.97;;;4.78;;
70588;SDS011;58152;49.202;18.744;2023-11-21T14:10:32;7.95;;;4.82;;
70588;SDS011;58152;49.202;18.744;2023-11-21T14:13:08;5.53;;;4.47;;
70588;SDS011;58152;49.202;18.744;2023-11-21T14:15:35;5.13;;;3.88;;
70588;SDS011;58152;49.202;18.744;2023-11-21T14:18:08;6.35;;;4.45;;
70588;SDS011;58152;49.202;18.744;2023-11-21T14:20:38;5.75;;;3.95;;
70588;SDS011;58152;49.202;18.744;2023-11-21T14:23:05;4.65;;;4.20;;
70588;SDS011;58152;49.202;18.744;2023-11-21T14:25:34;7.35;;;4.82;;
70588;SDS011;58152;49.202;18.744;2023-11-21T14:28:05;4.97;;;4.05;;
70588;SDS011;58152;49.202;18.744;2023-11-21T14:30:36;6.00;;;3.80;;
70588;SDS011;58152;49.202;18.744;2023-11-21T14:33:04;6.97;;;4.55;;
70588;SDS011;58152;49.202;18.744;2023-11-21T14:35:30;8.80;;;7.55;;
70588;SDS011;58152;49.202;18.744;2023-11-21T14:37:57;9.18;;;8.18;;
70588;SDS011;58152;49.202;18.744;2023-11-21T14:40:27;7.80;;;6.53;;
70588;SDS011;58152;49.202;18.744;2023-11-21T14:42:58;8.75;;;5.38;;
70588;SDS011;58152;49.202;18.744;2023-11-21T14:45:24;5.85;;;4.95;;
70588;SDS011;58152;49.202;18.744;2023-11-21T14:47:51;6.55;;;5.22;;
70588;SDS011;58152;49.202;18.744;2023-11-21T14:50:41;6.43;;;4.10;;